Time;durP1;ratioP1;P1;durP2;ratioP2;P2;SDS_P1;SDS_P2;PMS_P1;PMS_P2;Temp;Humidity;BMP_temperature;BMP_pressure;BME280_temperature;BME280_humidity;BME280_pressure;Samples;Min_cycle;Max_cycle;Signal;HPM_P1;HPM_P2
2022/08/26 00:01:55;;;;;;;14.38;6.90;;;19.00;99.90;;;;;;7315193;32;20438;-61
2022/08/26 00:06:11;;;;;;;16.67;7.57;;;18.90;99.90;;;;;;7312093;32;20134;-63
2022/08/26 00:10:14;;;;;;;8.93;7.22;;;18.80;99.90;;;;;;7318203;32;20263;-62
2022/08/26 00:14:16;;;;;;;11.02;7.15;;;18.80;99.90;;;;;;7320000;32;20264;-61
2022/08/26 00:18:18;;;;;;;10.68;7.30;;;18.80;99.90;;;;;;7315417;32;20177;-62
2022/08/26 00:22:23;;;;;;;12.52;7.62;;;18.70;99.90;;;;;;7314534;32;20468;-62
2022/08/26 00:26:25;;;;;;;9.10;6.72;;;18.60;99.90;;;;;;7307975;32;20127;-62
2022/08/26 00:30:30;;;;;;;9.75;7.20;;;18.50;99.90;;;;;;7306379;32;20198;-61
2022/08/26 00:34:34;;;;;;;12.00;7.47;;;18.40;99.90;;;;;;7316027;32;20214;-62
2022/08/26 00:38:36;;;;;;;11.00;7.12;;;18.40;99.90;;;;;;7310732;32;20111;-62
2022/08/26 00:42:39;;;;;;;11.38;7.25;;;18.40;99.90;;;;;;7311431;32;20269;-63
2022/08/26 00:46:51;;;;;;;10.68;7.43;;;18.30;99.90;;;;;;7313075;32;20167;-61
2022/08/26 00:51:00;;;;;;;11.98;7.85;;;18.20;99.90;;;;;;7319258;32;20241;-61
2022/08/26 00:55:14;;;;;;;9.25;6.97;;;18.10;99.90;;;;;;7302494;32;20131;-63
2022/08/26 00:59:22;;;;;;;10.27;8.07;;;18.10;99.90;;;;;;7313202;32;20107;-62
2022/08/26 01:03:26;;;;;;;11.82;7.32;;;18.20;99.90;;;;;;7310952;32;20198;-61
2022/08/26 01:07:29;;;;;;;12.77;7.37;;;18.00;99.90;;;;;;7306566;32;20462;-62
2022/08/26 01:11:32;;;;;;;10.45;7.95;;;18.00;99.90;;;;;;7309281;32;20162;-62
2022/08/26 01:15:38;;;;;;;15.63;8.68;;;17.80;99.90;;;;;;7309069;32;20161;-60
2022/08/26 01:20:11;;;;;;;10.23;7.57;;;17.80;99.90;;;;;;7308626;32;20427;-62
2022/08/26 01:24:15;;;;;;;10.23;7.90;;;17.80;99.90;;;;;;7305204;32;20188;-62
2022/08/26 01:28:27;;;;;;;10.10;7.93;;;17.80;99.90;;;;;;7304373;32;20140;-62
2022/08/26 01:32:32;;;;;;;9.80;7.75;;;17.80;99.90;;;;;;7314292;32;20155;-63
2022/08/26 01:36:35;;;;;;;12.32;7.45;;;17.80;99.90;;;;;;7313925;32;20206;-63
2022/08/26 01:40:41;;;;;;;11.82;7.43;;;17.80;99.90;;;;;;7311489;32;20144;-62
2022/08/26 01:45:08;;;;;;;12.20;8.30;;;17.80;99.90;;;;;;7317423;32;20168;-58
2022/08/26 01:49:10;;;;;;;11.68;7.85;;;17.70;99.90;;;;;;7323077;32;20145;-60
2022/08/26 01:53:16;;;;;;;11.68;7.60;;;17.70;99.90;;;;;;7295733;32;20140;-58
2022/08/26 01:57:19;;;;;;;9.52;7.72;;;17.70;99.90;;;;;;7317824;32;20126;-60
2022/08/26 02:01:24;;;;;;;11.23;7.97;;;17.60;99.90;;;;;;7316743;32;20196;-61
2022/08/26 02:05:29;;;;;;;10.93;7.95;;;17.60;99.90;;;;;;7318303;32;20456;-60
2022/08/26 02:09:37;;;;;;;10.40;8.32;;;17.60;99.90;;;;;;7316323;32;22505;-60
2022/08/26 02:14:07;;;;;;;11.45;8.18;;;17.50;99.90;;;;;;7302815;32;20443;-60
2022/08/26 02:18:10;;;;;;;12.98;8.52;;;17.40;99.90;;;;;;7318475;32;20230;-61
2022/08/26 02:22:19;;;;;;;11.55;8.50;;;17.40;99.90;;;;;;7317160;32;20488;-61
2022/08/26 02:26:24;;;;;;;13.27;8.63;;;17.30;99.90;;;;;;7316434;32;20124;-61
2022/08/26 02:30:37;;;;;;;9.93;8.33;;;17.30;99.90;;;;;;7321595;32;20231;-60
2022/08/26 02:34:39;;;;;;;11.82;8.48;;;17.30;99.90;;;;;;7321664;32;20321;-60
2022/08/26 02:38:58;;;;;;;13.02;8.85;;;17.20;99.90;;;;;;7313259;32;20185;-60
2022/08/26 02:43:00;;;;;;;12.32;9.07;;;17.10;99.90;;;;;;7305047;32;20309;-60
2022/08/26 02:47:02;;;;;;;14.65;8.95;;;17.00;99.90;;;;;;7292665;32;20195;-61
2022/08/26 02:51:05;;;;;;;11.65;8.57;;;17.00;99.90;;;;;;7317645;32;20170;-60
2022/08/26 02:55:07;;;;;;;13.65;8.75;;;17.00;99.90;;;;;;7320599;32;20139;-61
2022/08/26 02:59:12;;;;;;;12.80;9.35;;;16.90;99.90;;;;;;7311330;32;20259;-61
2022/08/26 03:03:14;;;;;;;13.68;9.23;;;16.90;99.90;;;;;;7307776;32;20108;-61
2022/08/26 03:07:16;;;;;;;13.88;10.27;;;16.90;99.90;;;;;;7314516;32;20736;-61
2022/08/26 03:11:19;;;;;;;13.85;9.60;;;16.80;99.90;;;;;;7318439;32;20124;-60
2022/08/26 03:15:23;;;;;;;15.75;11.88;;;16.80;99.90;;;;;;7314067;32;20222;-61
2022/08/26 03:19:25;;;;;;;13.68;10.40;;;16.70;99.90;;;;;;7312884;32;20783;-61
2022/08/26 03:23:26;;;;;;;17.00;12.10;;;16.80;99.90;;;;;;7311567;32;20491;-61
2022/08/26 03:27:29;;;;;;;18.80;11.60;;;16.80;99.90;;;;;;7317829;32;20199;-60
2022/08/26 03:31:33;;;;;;;18.70;12.35;;;16.90;99.90;;;;;;7315199;32;20123;-61
2022/08/26 03:35:36;;;;;;;14.32;9.85;;;16.90;99.90;;;;;;7315869;32;20108;-61
2022/08/26 03:39:40;;;;;;;14.00;11.80;;;17.00;99.90;;;;;;7316795;32;20226;-61
2022/08/26 03:43:42;;;;;;;15.13;11.52;;;17.10;99.90;;;;;;7311999;32;20155;-62
2022/08/26 03:47:46;;;;;;;15.65;13.70;;;17.20;99.90;;;;;;7309823;32;20103;-62
2022/08/26 03:51:50;;;;;;;17.45;13.50;;;17.20;99.90;;;;;;7312883;32;20617;-61
2022/08/26 03:55:52;;;;;;;18.42;13.10;;;17.30;99.90;;;;;;7316444;32;20103;-62
2022/08/26 03:59:54;;;;;;;14.68;12.90;;;17.40;99.90;;;;;;7314039;32;20111;-61
2022/08/26 04:03:56;;;;;;;16.55;11.05;;;17.50;99.90;;;;;;7316760;32;20107;-61
2022/08/26 04:08:00;;;;;;;13.52;11.90;;;17.60;99.90;;;;;;7307312;32;20119;-61
2022/08/26 04:12:03;;;;;;;18.20;13.18;;;17.70;99.90;;;;;;7317445;32;20107;-61
2022/08/26 04:16:05;;;;;;;35.97;30.45;;;17.80;99.90;;;;;;7313070;32;20116;-61
2022/08/26 04:20:08;;;;;;;36.65;29.52;;;18.10;99.90;;;;;;7315909;32;20141;-61
2022/08/26 04:24:12;;;;;;;35.90;28.65;;;18.30;99.90;;;;;;7301441;32;20655;-62
2022/08/26 04:28:14;;;;;;;37.00;28.87;;;18.40;99.90;;;;;;7298802;32;20191;-61
2022/08/26 04:32:16;;;;;;;41.67;37.15;;;18.50;99.90;;;;;;7315200;32;20491;-61
2022/08/26 04:36:18;;;;;;;46.72;37.70;;;18.70;99.90;;;;;;7312642;32;20144;-61
2022/08/26 04:40:21;;;;;;;42.30;37.75;;;18.90;99.90;;;;;;7319047;32;20144;-66
2022/08/26 04:44:26;;;;;;;43.85;35.63;;;19.00;99.90;;;;;;7316075;32;20139;-66
2022/08/26 04:48:29;;;;;;;42.67;37.85;;;19.10;99.90;;;;;;7313002;32;20632;-68
2022/08/26 04:52:32;;;;;;;40.83;34.47;;;19.30;99.90;;;;;;7316239;32;20567;-67
2022/08/26 04:56:40;;;;;;;38.42;33.90;;;19.30;99.90;;;;;;7319887;32;20112;-65
2022/08/26 05:00:45;;;;;;;44.13;36.22;;;19.40;99.90;;;;;;7317372;32;20187;-67
2022/08/26 05:04:46;;;;;;;39.22;34.70;;;19.40;99.90;;;;;;7311928;32;20116;-67
2022/08/26 05:08:53;;;;;;;45.08;36.83;;;19.50;99.90;;;;;;7311496;32;20208;-65
2022/08/26 05:12:59;;;;;;;42.72;34.03;;;19.60;99.90;;;;;;7319144;32;20134;-66
2022/08/26 05:17:01;;;;;;;36.80;31.42;;;19.80;99.90;;;;;;7304326;32;20195;-69
2022/08/26 05:21:04;;;;;;;34.97;27.73;;;19.80;99.90;;;;;;7321630;32;20134;-68
2022/08/26 05:25:06;;;;;;;34.38;28.92;;;19.90;99.90;;;;;;7309637;32;20190;-66
2022/08/26 05:29:08;;;;;;;29.63;23.95;;;20.00;99.90;;;;;;7303440;32;20194;-70
2022/08/26 05:33:11;;;;;;;30.50;25.05;;;20.00;99.90;;;;;;7310375;32;20304;-68
2022/08/26 05:37:12;;;;;;;29.85;26.15;;;20.00;99.90;;;;;;7314741;32;20318;-68
2022/08/26 05:41:26;;;;;;;32.90;24.87;;;20.20;99.90;;;;;;7310205;32;20286;-69
2022/08/26 05:45:49;;;;;;;26.98;22.50;;;20.30;99.90;;;;;;7303580;32;20136;-69
2022/08/26 05:49:51;;;;;;;30.77;22.55;;;20.30;99.90;;;;;;7311546;32;20371;-68
2022/08/26 05:53:54;;;;;;;24.83;19.25;;;20.50;99.90;;;;;;7309535;32;20134;-71
2022/08/26 05:57:56;;;;;;;27.98;19.92;;;20.50;99.90;;;;;;7314703;32;21076;-67
2022/08/26 06:02:01;;;;;;;30.02;21.65;;;20.50;99.90;;;;;;7316157;32;20230;-65
2022/08/26 06:06:09;;;;;;;22.30;17.62;;;20.50;99.90;;;;;;7319563;32;20496;-66
2022/08/26 06:10:14;;;;;;;23.92;19.15;;;20.50;99.90;;;;;;7315077;32;20298;-66
2022/08/26 06:14:34;;;;;;;31.75;23.62;;;20.70;99.90;;;;;;7309247;32;20237;-67
2022/08/26 06:18:39;;;;;;;28.02;23.05;;;20.70;99.90;;;;;;7308656;32;20266;-66
2022/08/26 06:27:04;;;;;;;32.40;26.92;;;20.80;99.90;;;;;;7312218;32;20463;-65
2022/08/26 06:31:06;;;;;;;25.88;23.17;;;20.80;99.90;;;;;;7301504;32;20562;-68
2022/08/26 06:35:08;;;;;;;27.33;20.50;;;20.80;99.90;;;;;;7316141;32;20253;-67
2022/08/26 06:39:15;;;;;;;27.52;21.67;;;20.90;99.90;;;;;;7305961;32;20170;-65
2022/08/26 06:43:19;;;;;;;31.00;22.50;;;20.80;99.90;;;;;;7316303;32;20133;-66
2022/08/26 06:47:21;;;;;;;23.85;19.00;;;20.90;99.90;;;;;;7311975;32;20264;-65
2022/08/26 06:51:29;;;;;;;28.85;20.70;;;20.90;99.90;;;;;;7316952;32;20200;-68
2022/08/26 06:55:31;;;;;;;26.60;18.92;;;21.00;99.90;;;;;;7323734;32;20116;-66
2022/08/26 06:59:33;;;;;;;26.23;21.08;;;21.00;99.90;;;;;;7315724;32;20211;-66
2022/08/26 07:03:35;;;;;;;30.65;21.70;;;21.00;99.90;;;;;;7321956;32;20119;-67
2022/08/26 07:07:40;;;;;;;24.95;18.02;;;21.00;99.90;;;;;;7316325;32;20096;-66
2022/08/26 07:11:44;;;;;;;31.58;24.73;;;21.00;99.90;;;;;;7300802;32;20182;-68
2022/08/26 07:15:46;;;;;;;33.53;24.92;;;21.10;99.90;;;;;;7321695;32;20188;-67
2022/08/26 07:20:10;;;;;;;31.05;24.40;;;21.10;99.90;;;;;;7314670;32;20707;-67
2022/08/26 07:24:12;;;;;;;42.42;29.77;;;21.10;99.90;;;;;;7303753;32;20210;-67
2022/08/26 07:28:13;;;;;;;45.97;34.95;;;21.20;99.90;;;;;;7315678;32;20177;-66
2022/08/26 07:32:18;;;;;;;50.08;36.03;;;21.20;99.90;;;;;;7311553;32;20298;-66
2022/08/26 07:36:22;;;;;;;44.67;36.10;;;21.20;99.90;;;;;;7300651;32;20131;-67
2022/08/26 07:40:24;;;;;;;47.50;37.08;;;21.30;99.90;;;;;;7303188;32;20175;-66
2022/08/26 07:44:27;;;;;;;45.28;38.75;;;21.20;99.90;;;;;;7318925;32;20112;-66
2022/08/26 07:48:30;;;;;;;35.80;27.73;;;21.30;99.90;;;;;;7317072;32;20149;-66
2022/08/26 07:52:36;;;;;;;32.80;25.25;;;21.40;99.90;;;;;;7318571;32;20609;-66
2022/08/26 07:56:38;;;;;;;25.15;21.12;;;21.30;99.90;;;;;;7319898;32;20108;-69
2022/08/26 08:00:46;;;;;;;31.70;20.60;;;21.30;99.90;;;;;;7316237;32;20194;-67
2022/08/26 08:04:47;;;;;;;25.52;19.42;;;21.30;99.90;;;;;;7315902;32;20183;-66
2022/08/26 08:08:50;;;;;;;23.40;20.92;;;21.30;99.90;;;;;;7321740;32;20115;-65
2022/08/26 08:12:52;;;;;;;29.23;20.73;;;21.20;99.90;;;;;;7319137;32;20946;-67
2022/08/26 08:16:54;;;;;;;30.67;21.80;;;21.30;99.90;;;;;;7319658;32;20737;-68
2022/08/26 08:20:56;;;;;;;29.20;25.65;;;21.30;99.90;;;;;;7314895;32;20548;-67
2022/08/26 08:25:19;;;;;;;31.83;25.42;;;21.20;99.90;;;;;;7314559;32;20157;-67
2022/08/26 08:29:21;;;;;;;28.10;21.45;;;21.20;99.90;;;;;;7318127;32;20241;-68
2022/08/26 08:33:24;;;;;;;24.30;18.20;;;21.30;99.90;;;;;;7309776;32;20245;-65
2022/08/26 08:37:26;;;;;;;20.12;15.45;;;21.30;99.90;;;;;;7314705;32;21693;-65
2022/08/26 08:41:50;;;;;;;19.30;14.32;;;21.30;99.90;;;;;;7313171;32;20282;-66
2022/08/26 08:46:01;;;;;;;19.80;12.98;;;21.30;99.90;;;;;;7313270;32;20283;-65
2022/08/26 08:50:24;;;;;;;15.38;10.70;;;21.30;99.90;;;;;;7304909;32;20128;-65
2022/08/26 08:54:27;;;;;;;17.08;9.70;;;21.40;99.90;;;;;;7311664;32;20198;-66
2022/08/26 08:59:08;;;;;;;12.45;9.00;;;21.40;99.90;;;;;;7298926;32;20122;-66
2022/08/26 09:03:34;;;;;;;12.18;7.60;;;21.30;99.90;;;;;;7308692;32;20122;-66
2022/08/26 09:07:44;;;;;;;12.05;6.78;;;21.30;99.90;;;;;;7311395;32;20250;-69
2022/08/26 09:11:48;;;;;;;12.75;7.82;;;21.30;99.90;;;;;;7311345;32;20242;-64
2022/08/26 09:16:00;;;;;;;15.02;6.55;;;21.30;99.90;;;;;;7314831;32;20581;-67
2022/08/26 09:20:07;;;;;;;13.43;6.68;;;21.30;99.90;;;;;;7309966;32;20372;-68
2022/08/26 09:24:10;;;;;;;10.57;5.68;;;21.30;99.90;;;;;;7311674;32;20127;-66
2022/08/26 09:28:20;;;;;;;9.32;5.87;;;21.40;99.90;;;;;;7296738;32;20138;-65
2022/08/26 09:32:25;;;;;;;10.80;6.37;;;21.30;99.90;;;;;;7313486;32;20195;-67
2022/08/26 09:36:37;;;;;;;12.50;5.78;;;21.30;99.90;;;;;;7318017;32;20241;-66
2022/08/26 09:41:03;;;;;;;15.05;6.78;;;21.30;99.90;;;;;;7312233;32;20307;-66
2022/08/26 09:45:11;;;;;;;14.52;7.55;;;21.40;99.90;;;;;;7316860;32;20115;-67
2022/08/26 09:49:23;;;;;;;14.73;7.55;;;21.40;99.90;;;;;;7318810;32;20190;-65
2022/08/26 09:53:32;;;;;;;16.67;10.95;;;21.40;99.90;;;;;;7311786;32;20849;-67
2022/08/26 09:57:43;;;;;;;20.02;13.65;;;21.50;99.90;;;;;;7308316;32;20099;-66
2022/08/26 10:01:45;;;;;;;24.85;18.17;;;21.60;99.90;;;;;;7319211;32;20476;-68
2022/08/26 10:05:58;;;;;;;23.60;16.87;;;21.60;99.90;;;;;;7302427;32;20172;-66
2022/08/26 10:10:03;;;;;;;17.95;14.32;;;21.50;99.90;;;;;;7314300;32;20531;-67
2022/08/26 10:14:32;;;;;;;16.98;13.10;;;21.50;99.90;;;;;;7320284;32;20191;-69
2022/08/26 10:18:44;;;;;;;20.92;16.77;;;21.50;99.90;;;;;;7320025;32;20107;-68
2022/08/26 10:22:58;;;;;;;25.17;17.90;;;21.60;99.90;;;;;;7311090;32;20157;-67
2022/08/26 10:27:05;;;;;;;24.60;17.77;;;21.70;99.90;;;;;;7316762;32;20099;-66
2022/08/26 10:31:35;;;;;;;27.77;16.92;;;21.70;99.90;;;;;;7318129;32;20108;-65
2022/08/26 10:35:52;;;;;;;23.92;16.17;;;21.70;99.90;;;;;;7316587;32;20746;-67
2022/08/26 10:40:19;;;;;;;23.83;12.82;;;21.80;99.90;;;;;;7313590;32;20161;-66
2022/08/26 10:44:24;;;;;;;11.90;7.75;;;21.80;99.90;;;;;;7313587;32;20195;-67
2022/08/26 10:48:47;;;;;;;12.20;6.70;;;21.80;99.90;;;;;;7313202;32;20294;-58
2022/08/26 10:53:11;;;;;;;19.17;13.07;;;21.90;99.90;;;;;;7312448;32;20206;-66
2022/08/26 10:57:23;;;;;;;23.83;14.45;;;22.00;99.90;;;;;;7313306;32;20246;-65
2022/08/26 11:01:56;;;;;;;26.62;14.85;;;22.00;99.90;;;;;;7315610;32;20183;-68
2022/08/26 11:06:30;;;;;;;16.37;11.00;;;22.00;99.90;;;;;;7313783;32;20137;-69
2022/08/26 11:10:41;;;;;;;18.42;12.88;;;22.00;99.90;;;;;;7290197;32;20293;-66
2022/08/26 11:14:42;;;;;;;19.42;12.68;;;21.90;99.90;;;;;;7316636;32;20392;-66
2022/08/26 11:18:59;;;;;;;20.90;15.40;;;22.10;99.90;;;;;;7309818;32;20777;-66
2022/08/26 11:23:11;;;;;;;24.00;16.33;;;22.10;99.90;;;;;;7308572;32;20264;-64
2022/08/26 11:27:23;;;;;;;19.37;12.95;;;22.10;99.90;;;;;;7311408;32;20330;-65
2022/08/26 11:31:24;;;;;;;16.80;11.98;;;22.20;99.90;;;;;;7317042;32;20229;-66
2022/08/26 11:35:33;;;;;;;23.38;15.65;;;22.40;99.90;;;;;;7313722;32;20108;-67
2022/08/26 11:39:53;;;;;;;19.17;15.30;;;22.70;99.90;;;;;;7314015;32;20104;-67
2022/08/26 11:43:58;;;;;;;17.95;13.95;;;22.80;99.90;;;;;;7315782;32;20206;-66
2022/08/26 11:48:18;;;;;;;16.35;10.15;;;22.90;99.90;;;;;;7317294;32;20261;-66
2022/08/26 11:52:21;;;;;;;11.68;6.93;;;23.00;99.90;;;;;;7311002;32;20804;-67
2022/08/26 11:56:27;;;;;;;10.43;5.75;;;23.10;99.90;;;;;;7315808;32;20206;-65
2022/08/26 12:00:54;;;;;;;11.02;5.30;;;23.20;99.90;;;;;;7315272;32;20194;-68
2022/08/26 12:04:56;;;;;;;17.23;6.65;;;23.10;99.90;;;;;;7310107;32;20197;-56
2022/08/26 12:09:04;;;;;;;10.43;5.25;;;23.20;99.90;;;;;;7302515;32;20288;-59
2022/08/26 12:13:15;;;;;;;13.02;5.90;;;23.20;99.90;;;;;;7312865;32;20227;-58
2022/08/26 12:17:26;;;;;;;12.57;6.65;;;23.10;99.90;;;;;;7309618;32;20230;-58
2022/08/26 12:21:29;;;;;;;12.25;7.18;;;23.20;99.90;;;;;;7313408;32;20123;-59
2022/08/26 12:25:35;;;;;;;11.45;6.68;;;23.30;99.90;;;;;;7308631;32;20237;-57
2022/08/26 12:29:37;;;;;;;13.95;8.25;;;23.40;99.90;;;;;;7310592;32;20282;-57
2022/08/26 12:33:40;;;;;;;12.90;8.43;;;23.40;99.90;;;;;;7313491;32;20401;-58
2022/08/26 12:37:44;;;;;;;14.20;6.12;;;23.40;99.90;;;;;;7314865;32;20495;-57
2022/08/26 12:41:53;;;;;;;10.02;5.75;;;23.50;99.90;;;;;;7314488;32;20272;-58
2022/08/26 12:45:58;;;;;;;8.90;5.47;;;23.30;99.90;;;;;;7312585;32;20130;-66
2022/08/26 12:50:08;;;;;;;8.73;5.65;;;23.30;99.90;;;;;;7282704;32;20261;-65
2022/08/26 12:54:13;;;;;;;10.75;5.50;;;23.30;99.90;;;;;;7314670;32;20134;-65
2022/08/26 12:58:15;;;;;;;10.02;5.85;;;23.30;99.90;;;;;;7314517;32;20111;-66
2022/08/26 13:02:37;;;;;;;9.13;5.53;;;23.50;99.90;;;;;;7311233;32;20273;-65
2022/08/26 13:06:39;;;;;;;10.05;5.05;;;23.50;99.90;;;;;;7318398;32;20145;-66
2022/08/26 13:10:45;;;;;;;7.55;4.07;;;23.70;99.90;;;;;;7310736;32;20347;-66
2022/08/26 13:14:46;;;;;;;13.70;4.12;;;23.80;99.90;;;;;;7315873;32;20124;-67
2022/08/26 13:18:55;;;;;;;5.80;3.10;;;24.00;99.90;;;;;;7299517;32;20166;-68
2022/08/26 13:22:57;;;;;;;9.05;3.00;;;23.90;99.90;;;;;;7314856;32;20580;-65
2022/08/26 13:27:01;;;;;;;7.37;3.58;;;23.80;99.90;;;;;;7317659;32;21266;-67
2022/08/26 13:31:03;;;;;;;10.52;3.60;;;23.90;99.90;;;;;;7312949;32;20317;-65
2022/08/26 13:35:06;;;;;;;8.73;4.55;;;23.80;99.90;;;;;;7317984;32;20509;-65
2022/08/26 13:39:08;;;;;;;11.18;3.85;;;23.90;99.90;;;;;;7306768;32;20107;-69
2022/08/26 13:43:10;;;;;;;8.57;3.08;;;23.50;99.90;;;;;;7319542;32;20353;-65
2022/08/26 13:47:12;;;;;;;7.43;3.05;;;23.50;99.90;;;;;;7316138;32;20130;-67
2022/08/26 13:51:15;;;;;;;7.12;2.67;;;23.50;99.90;;;;;;7317768;32;20514;-65
2022/08/26 13:55:17;;;;;;;7.70;2.85;;;23.40;99.90;;;;;;7316062;32;20486;-64
2022/08/26 13:59:18;;;;;;;7.45;2.20;;;23.30;99.90;;;;;;7315406;32;20171;-65
2022/08/26 14:03:20;;;;;;;5.30;2.35;;;23.20;99.90;;;;;;7320741;32;20123;-65
2022/08/26 14:07:22;;;;;;;6.70;2.55;;;23.10;99.90;;;;;;7322142;32;20175;-66
2022/08/26 14:11:24;;;;;;;7.32;2.87;;;23.10;99.90;;;;;;7319493;32;20781;-65
2022/08/26 14:15:27;;;;;;;6.10;2.60;;;23.00;99.90;;;;;;7313274;32;20674;-66
2022/08/26 14:19:30;;;;;;;7.35;2.20;;;22.90;99.90;;;;;;7320474;32;20157;-65
2022/08/26 14:23:32;;;;;;;5.35;2.20;;;22.90;99.90;;;;;;7312855;32;20299;-66
2022/08/26 14:27:34;;;;;;;8.60;2.28;;;23.00;99.90;;;;;;7312795;32;20573;-68
2022/08/26 14:31:37;;;;;;;7.93;2.20;;;22.90;99.90;;;;;;7322031;32;20586;-64
2022/08/26 14:35:40;;;;;;;5.05;1.90;;;22.90;99.90;;;;;;7317858;32;20120;-65
2022/08/26 14:39:49;;;;;;;6.57;1.75;;;22.80;99.90;;;;;;7314848;32;20593;-65
2022/08/26 14:44:12;;;;;;;6.80;1.52;;;22.80;99.90;;;;;;7321022;32;20247;-66
2022/08/26 14:48:14;;;;;;;9.30;1.52;;;22.80;99.90;;;;;;7312073;32;20203;-66
2022/08/26 14:52:16;;;;;;;6.10;1.40;;;22.60;99.90;;;;;;7307415;32;20171;-67
2022/08/26 14:56:18;;;;;;;11.80;1.80;;;22.60;99.90;;;;;;7312316;32;20317;-66
2022/08/26 15:00:20;;;;;;;10.20;1.80;;;22.50;99.90;;;;;;7307474;32;20204;-59
2022/08/26 15:04:23;;;;;;;10.25;1.95;;;22.30;99.90;;;;;;7317064;32;20214;-58
2022/08/26 15:08:25;;;;;;;4.10;1.30;;;22.20;99.90;;;;;;7301583;32;20572;-58
2022/08/26 15:12:27;;;;;;;8.65;1.80;;;22.20;99.90;;;;;;7323105;32;20309;-57
2022/08/26 15:16:29;;;;;;;9.35;1.70;;;22.50;99.90;;;;;;7313941;32;20189;-60
2022/08/26 15:20:34;;;;;;;6.03;1.65;;;22.90;99.90;;;;;;7313563;32;20195;-58
2022/08/26 15:24:35;;;;;;;9.50;1.73;;;23.10;99.90;;;;;;7310416;32;20173;-58
2022/08/26 15:28:38;;;;;;;5.22;1.42;;;23.00;99.90;;;;;;7314356;32;20545;-58
2022/08/26 15:32:40;;;;;;;7.72;1.80;;;23.20;99.90;;;;;;7317597;32;20573;-57
2022/08/26 15:36:44;;;;;;;9.07;1.42;;;23.20;99.90;;;;;;7323266;32;20111;-58
2022/08/26 15:40:46;;;;;;;7.93;1.60;;;23.20;99.90;;;;;;7306000;32;20143;-60
2022/08/26 15:44:48;;;;;;;8.40;1.45;;;23.00;99.90;;;;;;7316552;32;20131;-58
2022/08/26 15:48:50;;;;;;;5.53;1.70;;;22.80;99.90;;;;;;7317601;32;20293;-57
2022/08/26 15:52:52;;;;;;;8.93;1.67;;;22.70;99.90;;;;;;7319937;32;20192;-60
2022/08/26 15:56:54;;;;;;;6.18;2.25;;;22.50;99.90;;;;;;7318509;32;20152;-58
2022/08/26 16:00:56;;;;;;;9.07;1.87;;;22.50;99.90;;;;;;7304730;32;20604;-59
2022/08/26 16:04:59;;;;;;;6.03;1.95;;;22.20;99.90;;;;;;7318275;32;20372;-59
2022/08/26 16:09:01;;;;;;;13.43;2.30;;;22.10;99.90;;;;;;7315477;32;20127;-59
2022/08/26 16:13:03;;;;;;;8.35;2.47;;;22.00;99.90;;;;;;7312184;32;20259;-58
2022/08/26 16:17:05;;;;;;;9.65;2.72;;;21.90;99.90;;;;;;7313384;32;20769;-58
2022/08/26 16:21:08;;;;;;;10.18;2.70;;;21.80;99.90;;;;;;7313505;32;20262;-58
2022/08/26 16:25:14;;;;;;;11.95;3.28;;;21.80;99.90;;;;;;7313794;32;20241;-59
2022/08/26 16:29:17;;;;;;;10.43;3.00;;;21.80;99.90;;;;;;7320648;32;20602;-60
2022/08/26 16:33:18;;;;;;;8.32;3.03;;;21.70;99.90;;;;;;7322346;32;20124;-59
2022/08/26 16:37:30;;;;;;;11.00;2.78;;;21.80;99.90;;;;;;7320237;32;20122;-57
2022/08/26 16:41:32;;;;;;;5.70;2.25;;;21.80;99.90;;;;;;7321688;32;20116;-59
2022/08/26 16:45:36;;;;;;;6.15;2.00;;;21.80;99.90;;;;;;7311297;32;20632;-58
2022/08/26 16:49:42;;;;;;;5.85;1.80;;;21.80;99.90;;;;;;7313477;32;20235;-58
2022/08/26 16:53:44;;;;;;;7.12;1.95;;;21.80;99.90;;;;;;7313390;32;20413;-58
2022/08/26 16:57:47;;;;;;;6.55;1.70;;;21.70;99.90;;;;;;7310682;32;20168;-58
2022/08/26 17:01:49;;;;;;;7.43;1.90;;;21.60;99.90;;;;;;7313441;32;21073;-59
2022/08/26 17:05:51;;;;;;;7.03;2.17;;;21.70;99.90;;;;;;7300664;32;20116;-58
2022/08/26 17:09:53;;;;;;;7.95;2.17;;;21.60;99.90;;;;;;7320075;32;20107;-58
2022/08/26 17:13:55;;;;;;;7.57;1.83;;;21.60;99.90;;;;;;7301995;32;20214;-60
2022/08/26 17:17:57;;;;;;;9.68;2.72;;;21.60;99.90;;;;;;7323457;32;20238;-58
2022/08/26 17:21:59;;;;;;;4.18;1.98;;;21.50;99.90;;;;;;7303866;32;20173;-59
2022/08/26 17:26:07;;;;;;;5.87;1.90;;;21.40;99.90;;;;;;7322097;32;20123;-59
2022/08/26 17:30:10;;;;;;;6.45;1.52;;;21.30;99.90;;;;;;7316214;32;20108;-59
2022/08/26 17:34:12;;;;;;;5.75;2.08;;;21.30;99.90;;;;;;7321241;32;20134;-59
2022/08/26 17:38:13;;;;;;;7.40;1.70;;;21.30;99.90;;;;;;7322175;32;20209;-60
2022/08/26 17:42:15;;;;;;;8.15;1.83;;;21.30;99.90;;;;;;7318361;32;20210;-59
2022/08/26 17:46:17;;;;;;;3.78;1.60;;;21.30;99.90;;;;;;7321443;32;20170;-59
2022/08/26 17:50:19;;;;;;;8.40;2.30;;;21.20;99.90;;;;;;7305014;32;20134;-58
2022/08/26 17:54:21;;;;;;;6.05;1.52;;;21.20;99.90;;;;;;7305410;32;20772;-65
2022/08/26 17:58:23;;;;;;;5.15;1.65;;;21.10;99.90;;;;;;7316428;32;20107;-66
2022/08/26 18:02:25;;;;;;;7.25;1.85;;;21.00;99.90;;;;;;7318526;32;20817;-66
2022/08/26 18:06:32;;;;;;;6.43;1.85;;;20.90;99.90;;;;;;7320356;32;20265;-67
2022/08/26 18:10:34;;;;;;;3.87;1.65;;;20.80;99.90;;;;;;7316966;32;20579;-65
2022/08/26 18:14:36;;;;;;;11.45;1.80;;;20.90;99.90;;;;;;7305571;32;20268;-66
2022/08/26 18:18:38;;;;;;;7.90;1.85;;;20.80;99.90;;;;;;7319413;32;20535;-67
2022/08/26 18:22:40;;;;;;;6.18;1.60;;;20.80;99.90;;;;;;7317365;32;20108;-67
2022/08/26 18:26:47;;;;;;;5.20;1.67;;;20.90;99.90;;;;;;7317327;32;20287;-70
2022/08/26 18:30:49;;;;;;;4.53;1.67;;;20.80;99.90;;;;;;7318854;32;20191;-69
2022/08/26 18:34:51;;;;;;;6.03;1.50;;;20.60;99.90;;;;;;7315104;32;20707;-71
2022/08/26 18:38:54;;;;;;;6.47;1.42;;;20.70;99.90;;;;;;7326537;32;20235;-70
2022/08/26 18:42:55;;;;;;;9.25;1.80;;;20.80;99.90;;;;;;7320664;32;20605;-64
2022/08/26 18:46:57;;;;;;;6.15;1.50;;;20.60;99.90;;;;;;7314336;32;21934;-64
2022/08/26 18:50:59;;;;;;;5.32;1.60;;;20.60;99.90;;;;;;7319701;32;20325;-62
2022/08/26 18:55:01;;;;;;;8.45;1.30;;;20.60;99.90;;;;;;7320437;32;20157;-64
2022/08/26 18:59:05;;;;;;;7.32;1.50;;;20.50;99.90;;;;;;7323916;32;20131;-65
2022/08/26 19:03:07;;;;;;;6.87;1.45;;;20.60;99.90;;;;;;7317068;32;20237;-63
2022/08/26 19:07:20;;;;;;;4.53;1.30;;;20.70;99.90;;;;;;7313346;32;20291;-65
2022/08/26 19:11:21;;;;;;;8.63;1.40;;;20.50;99.90;;;;;;7320801;32;20705;-65
2022/08/26 19:15:56;;;;;;;9.88;1.70;;;20.40;99.90;;;;;;7320405;32;20198;-66
2022/08/26 19:19:58;;;;;;;8.63;1.92;;;20.40;99.90;;;;;;7319606;32;20627;-64
2022/08/26 19:24:01;;;;;;;9.23;1.83;;;20.50;99.90;;;;;;7323439;32;20119;-63
2022/08/26 19:28:03;;;;;;;4.85;1.27;;;20.50;99.90;;;;;;7316609;32;20152;-64
2022/08/26 19:32:07;;;;;;;8.75;2.00;;;20.50;99.90;;;;;;7314329;32;20496;-64
2022/08/26 19:36:14;;;;;;;6.32;1.48;;;20.40;99.90;;;;;;7312790;32;20781;-63
2022/08/26 19:40:16;;;;;;;;;;;20.40;99.90;;;;;;7319773;32;20593;-65
2022/08/26 19:48:43;;;;;;;6.43;1.60;;;20.50;99.90;;;;;;7317327;32;20370;-63
2022/08/26 19:52:44;;;;;;;5.35;1.73;;;20.40;99.90;;;;;;7319391;32;20306;-62
2022/08/26 19:56:46;;;;;;;7.15;1.60;;;20.40;99.90;;;;;;7313214;32;20116;-64
2022/08/26 20:00:50;;;;;;;6.32;1.50;;;20.40;99.90;;;;;;7319724;32;20376;-65
2022/08/26 20:04:52;;;;;;;5.30;1.30;;;20.30;99.90;;;;;;7301700;32;20201;-65
2022/08/26 20:08:54;;;;;;;6.53;1.40;;;20.20;99.90;;;;;;7311848;32;20219;-65
2022/08/26 20:12:57;;;;;;;4.68;1.20;;;20.10;99.90;;;;;;7307442;32;20100;-63
2022/08/26 20:16:59;;;;;;;9.45;2.03;;;20.20;99.90;;;;;;7320476;32;20487;-63
2022/08/26 20:25:21;;;;;;;9.30;2.12;;;20.10;99.90;;;;;;7302404;32;20702;-65
2022/08/26 20:29:23;;;;;;;7.00;1.90;;;20.10;99.90;;;;;;7316175;32;20243;-65
2022/08/26 20:33:25;;;;;;;7.80;1.73;;;20.10;99.90;;;;;;7317737;32;20260;-64
2022/08/26 20:37:28;;;;;;;6.35;1.50;;;20.00;99.90;;;;;;7298197;32;20321;-65
2022/08/26 20:41:30;;;;;;;5.28;1.42;;;20.00;99.90;;;;;;7317356;32;20648;-64
2022/08/26 20:45:32;;;;;;;4.90;1.23;;;19.90;99.90;;;;;;7308356;32;20243;-65
2022/08/26 20:49:34;;;;;;;6.15;1.30;;;19.80;99.90;;;;;;7310120;32;20135;-65
2022/08/26 20:53:36;;;;;;;4.35;1.20;;;19.80;99.90;;;;;;7308956;32;20169;-65
2022/08/26 20:57:41;;;;;;;5.68;1.45;;;19.60;99.90;;;;;;7310892;32;20214;-65
2022/08/26 21:01:44;;;;;;;6.03;1.55;;;19.70;99.90;;;;;;7313959;32;20305;-64
2022/08/26 21:05:46;;;;;;;9.80;1.42;;;19.70;99.90;;;;;;7312884;32;20126;-65
2022/08/26 21:09:48;;;;;;;5.87;1.25;;;19.60;99.90;;;;;;7319222;32;20555;-65
2022/08/26 21:13:52;;;;;;;5.15;1.33;;;19.50;99.90;;;;;;7317486;32;20130;-65
2022/08/26 21:18:14;;;;;;;8.25;1.48;;;19.50;99.90;;;;;;7306824;32;20370;-65